DLH401 EDDF-KJFK
Flight info
| Callsign | DLH401 |
|---|---|
| Flight time | N/A |
| Altitude | 36000 |
| Route | OBOKA3W/25C OBOKA Z28 DIBIR DCT BUDIP DCT RAVLO Y70 OTBED L60 PENIL M144 BAGSO DCT ADBUS DCT DOGAL/M083F370 NATC ELSIR/N0475F380 N402C ALLEX DCT ENE PARCH4 |
| Aircraft | A346/H-SDE2E3FGHIJ3J4J5M1RWXY/LB1D1 |
Departure
| Time | 2026-05-07 11:30 |
|---|---|
| Airport | Frankfurt Main Airport (EDDF) |
Arrival
| Time | N/A |
|---|---|
| Airport | John F. Kennedy International Airport (KJFK) |
| Time | Latitude | Longitude | Altitude | Speed | Heading |
|---|---|---|---|---|---|
| 2026-05-07 10:54 | 50.04586 | 8.56603 | 364 ft | 0 kts | 114° |
| 2026-05-07 11:15 | 50.04587 | 8.56598 | 370 ft | 3 kts | 114° |
| 2026-05-07 11:15 | 50.04598 | 8.56561 | 368 ft | 4 kts | 116° |
| 2026-05-07 11:15 | 50.04611 | 8.56526 | 370 ft | 4 kts | 128° |
| 2026-05-07 11:16 | 50.04627 | 8.56503 | 371 ft | 4 kts | 159° |
| 2026-05-07 11:16 | 50.04637 | 8.56501 | 370 ft | 3 kts | 204° |
| 2026-05-07 11:16 | 50.04626 | 8.56494 | 371 ft | 4 kts | 204° |
| 2026-05-07 11:16 | 50.04602 | 8.56476 | 368 ft | 4 kts | 205° |
| 2026-05-07 11:17 | 50.04596 | 8.56472 | 367 ft | 0 kts | 205° |
| 2026-05-07 11:17 | 50.04597 | 8.56472 | 367 ft | 0 kts | 205° |
| 2026-05-07 11:23 | 50.04593 | 8.56470 | 364 ft | 2 kts | 205° |
| 2026-05-07 11:23 | 50.04567 | 8.56451 | 366 ft | 6 kts | 206° |
| 2026-05-07 11:24 | 50.04525 | 8.56395 | 369 ft | 10 kts | 238° |
| 2026-05-07 11:24 | 50.04491 | 8.56275 | 368 ft | 14 kts | 247° |
| 2026-05-07 11:24 | 50.04454 | 8.56127 | 368 ft | 13 kts | 250° |
| 2026-05-07 11:24 | 50.04393 | 8.56042 | 370 ft | 12 kts | 174° |
| 2026-05-07 11:25 | 50.04310 | 8.56088 | 371 ft | 13 kts | 130° |
| 2026-05-07 11:25 | 50.04278 | 8.56196 | 370 ft | 12 kts | 131° |
| 2026-05-07 11:25 | 50.04206 | 8.56261 | 364 ft | 5 kts | 158° |
| 2026-05-07 11:25 | 50.04162 | 8.56295 | 366 ft | 9 kts | 131° |
| 2026-05-07 11:26 | 50.04158 | 8.56409 | 367 ft | 13 kts | 71° |
| 2026-05-07 11:26 | 50.04192 | 8.56551 | 367 ft | 15 kts | 69° |
| 2026-05-07 11:26 | 50.04232 | 8.56720 | 367 ft | 18 kts | 70° |
| 2026-05-07 11:26 | 50.04279 | 8.56917 | 369 ft | 21 kts | 69° |
| 2026-05-07 11:27 | 50.04334 | 8.57146 | 370 ft | 24 kts | 70° |
| 2026-05-07 11:27 | 50.04395 | 8.57402 | 374 ft | 27 kts | 69° |
| 2026-05-07 11:27 | 50.04455 | 8.57653 | 376 ft | 25 kts | 69° |
| 2026-05-07 11:27 | 50.04519 | 8.57918 | 375 ft | 24 kts | 69° |
| 2026-05-07 11:28 | 50.04581 | 8.58180 | 374 ft | 27 kts | 70° |
| 2026-05-07 11:28 | 50.04638 | 8.58419 | 378 ft | 16 kts | 70° |
| 2026-05-07 11:28 | 50.04603 | 8.58576 | 381 ft | 19 kts | 151° |
| 2026-05-07 11:28 | 50.04519 | 8.58620 | 382 ft | 10 kts | 193° |
| 2026-05-07 11:29 | 50.04473 | 8.58517 | 382 ft | 14 kts | 248° |
| 2026-05-07 11:29 | 50.04369 | 8.58091 | 378 ft | 79 kts | 250° |
| 2026-05-07 11:29 | 50.04088 | 8.56903 | 373 ft | 152 kts | 250° |
| 2026-05-07 11:29 | 50.03649 | 8.55087 | 549 ft | 196 kts | 252° |
| 2026-05-07 11:30 | 50.03219 | 8.53069 | 1389 ft | 203 kts | 254° |
| 2026-05-07 11:30 | 50.02748 | 8.50952 | 2345 ft | 208 kts | 252° |
| 2026-05-07 11:30 | 50.02094 | 8.48962 | 3226 ft | 209 kts | 230° |
| 2026-05-07 11:30 | 50.00850 | 8.47810 | 3995 ft | 212 kts | 197° |
| 2026-05-07 11:31 | 49.99379 | 8.47477 | 4714 ft | 216 kts | 186° |
| 2026-05-07 11:31 | 49.97870 | 8.47291 | 5397 ft | 219 kts | 186° |
| 2026-05-07 11:31 | 49.96348 | 8.47024 | 6070 ft | 222 kts | 192° |
| 2026-05-07 11:31 | 49.94825 | 8.46467 | 6629 ft | 230 kts | 197° |
| 2026-05-07 11:32 | 49.91608 | 8.44663 | 6965 ft | 256 kts | 220° |
| 2026-05-07 11:32 | 49.90450 | 8.42552 | 7184 ft | 262 kts | 241° |
| 2026-05-07 11:32 | 49.89526 | 8.40105 | 7997 ft | 264 kts | 242° |
| 2026-05-07 11:33 | 49.88754 | 8.37519 | 8802 ft | 264 kts | 258° |
| 2026-05-07 11:33 | 49.88579 | 8.34723 | 9583 ft | 267 kts | 274° |
| 2026-05-07 11:33 | 49.88725 | 8.31797 | 10237 ft | 275 kts | 276° |
| 2026-05-07 11:33 | 49.88948 | 8.28776 | 10705 ft | 290 kts | 282° |
| 2026-05-07 11:34 | 49.89601 | 8.25727 | 11053 ft | 307 kts | 296° |
| 2026-05-07 11:34 | 49.90764 | 8.22842 | 11370 ft | 323 kts | 306° |
| 2026-05-07 11:34 | 49.92142 | 8.19966 | 11665 ft | 339 kts | 307° |
| 2026-05-07 11:34 | 49.93680 | 8.17061 | 11950 ft | 356 kts | 311° |
| 2026-05-07 11:35 | 49.95440 | 8.14241 | 12322 ft | 369 kts | 316° |
| 2026-05-07 11:35 | 49.97377 | 8.11565 | 12975 ft | 373 kts | 319° |
| 2026-05-07 11:35 | 49.99358 | 8.08922 | 13730 ft | 376 kts | 319° |
| 2026-05-07 11:35 | 50.01328 | 8.06303 | 14371 ft | 379 kts | 319° |
| 2026-05-07 11:36 | 50.03345 | 8.03618 | 14960 ft | 383 kts | 319° |
| 2026-05-07 11:36 | 50.05377 | 8.00905 | 15606 ft | 386 kts | 319° |
| 2026-05-07 11:36 | 50.07420 | 7.98169 | 16197 ft | 390 kts | 319° |
| 2026-05-07 11:36 | 50.09484 | 7.95402 | 16830 ft | 393 kts | 319° |
| 2026-05-07 11:37 | 50.11565 | 7.92602 | 17378 ft | 398 kts | 319° |
| 2026-05-07 11:37 | 50.13676 | 7.89762 | 17971 ft | 401 kts | 319° |
| 2026-05-07 11:37 | 50.15801 | 7.86896 | 18546 ft | 405 kts | 319° |
| 2026-05-07 11:37 | 50.17940 | 7.84001 | 19013 ft | 410 kts | 319° |
| 2026-05-07 11:38 | 50.19376 | 7.82061 | 19320 ft | 413 kts | 319° |
| 2026-05-07 11:38 | 50.22267 | 7.78158 | 20025 ft | 416 kts | 319° |
| 2026-05-07 11:38 | 50.24561 | 7.75369 | 20592 ft | 418 kts | 324° |
| 2026-05-07 11:38 | 50.27042 | 7.72936 | 21092 ft | 422 kts | 330° |
| 2026-05-07 11:39 | 50.28809 | 7.71518 | 21459 ft | 424 kts | 334° |
| 2026-05-07 11:39 | 50.31469 | 7.69634 | 21967 ft | 427 kts | 335° |
| 2026-05-07 11:39 | 50.34202 | 7.67780 | 22428 ft | 430 kts | 336° |
| 2026-05-07 11:39 | 50.36965 | 7.65914 | 22888 ft | 434 kts | 335° |
| 2026-05-07 11:40 | 50.39746 | 7.64019 | 23383 ft | 437 kts | 335° |
| 2026-05-07 11:40 | 50.42543 | 7.62100 | 23841 ft | 439 kts | 335° |
| 2026-05-07 11:40 | 50.45351 | 7.60164 | 24238 ft | 443 kts | 335° |
| 2026-05-07 11:40 | 50.48182 | 7.58211 | 24615 ft | 446 kts | 336° |
| 2026-05-07 11:41 | 50.51032 | 7.56250 | 25022 ft | 449 kts | 336° |
| 2026-05-07 11:41 | 50.53874 | 7.54183 | 25448 ft | 450 kts | 333° |
| 2026-05-07 11:41 | 50.56654 | 7.51870 | 25866 ft | 452 kts | 330° |
| 2026-05-07 11:41 | 50.59358 | 7.49314 | 26251 ft | 455 kts | 327° |
| 2026-05-07 11:42 | 50.62029 | 7.46614 | 26629 ft | 457 kts | 327° |
| 2026-05-07 11:42 | 50.64717 | 7.43856 | 26947 ft | 461 kts | 326° |
| 2026-05-07 11:42 | 50.67388 | 7.41105 | 27269 ft | 465 kts | 326° |
| 2026-05-07 11:42 | 50.70101 | 7.38302 | 27646 ft | 467 kts | 325° |
| 2026-05-07 11:43 | 50.72714 | 7.35193 | 28035 ft | 469 kts | 319° |
| 2026-05-07 11:43 | 50.75084 | 7.31654 | 28432 ft | 470 kts | 313° |
| 2026-05-07 11:43 | 50.77194 | 7.27720 | 28965 ft | 468 kts | 307° |
| 2026-05-07 11:43 | 50.79106 | 7.23564 | 29533 ft | 466 kts | 305° |
| 2026-05-07 11:44 | 50.80969 | 7.19376 | 30077 ft | 464 kts | 304° |
| 2026-05-07 11:44 | 50.82814 | 7.15194 | 30584 ft | 462 kts | 304° |
| 2026-05-07 11:44 | 50.84658 | 7.11017 | 31041 ft | 460 kts | 304° |
| 2026-05-07 11:44 | 50.86492 | 7.06869 | 31461 ft | 460 kts | 305° |
| 2026-05-07 11:45 | 50.88332 | 7.02717 | 31833 ft | 460 kts | 305° |
| 2026-05-07 11:45 | 50.90165 | 6.98583 | 32300 ft | 457 kts | 305° |
| 2026-05-07 11:45 | 50.91987 | 6.94466 | 32819 ft | 454 kts | 305° |
| 2026-05-07 11:45 | 50.93798 | 6.90368 | 33273 ft | 452 kts | 305° |
| 2026-05-07 11:46 | 50.95600 | 6.86282 | 33675 ft | 452 kts | 305° |
| 2026-05-07 11:46 | 50.97406 | 6.82183 | 34029 ft | 452 kts | 305° |
| 2026-05-07 11:46 | 50.99209 | 6.78088 | 34334 ft | 451 kts | 304° |
| 2026-05-07 11:46 | 51.00980 | 6.74057 | 34583 ft | 453 kts | 304° |
| 2026-05-07 11:47 | 51.02788 | 6.69939 | 34775 ft | 454 kts | 304° |
| 2026-05-07 11:47 | 51.04598 | 6.65804 | 34995 ft | 456 kts | 304° |
| 2026-05-07 11:47 | 51.06414 | 6.61648 | 35200 ft | 458 kts | 304° |
| 2026-05-07 11:47 | 51.08238 | 6.57467 | 35383 ft | 460 kts | 304° |
| 2026-05-07 11:48 | 51.10073 | 6.53252 | 35561 ft | 462 kts | 304° |
| 2026-05-07 11:48 | 51.11905 | 6.49035 | 35755 ft | 464 kts | 304° |
| 2026-05-07 11:48 | 51.13743 | 6.44801 | 35951 ft | 465 kts | 304° |
| 2026-05-07 11:49 | 51.17435 | 6.36272 | 36043 ft | 468 kts | 304° |
| 2026-05-07 11:49 | 51.21134 | 6.27702 | 36046 ft | 469 kts | 303° |
| 2026-05-07 11:50 | 51.24806 | 6.19161 | 36049 ft | 469 kts | 303° |
| 2026-05-07 11:50 | 51.28490 | 6.10545 | 36046 ft | 469 kts | 302° |
| 2026-05-07 11:51 | 51.32063 | 6.01814 | 36044 ft | 469 kts | 302° |
| 2026-05-07 11:51 | 51.35634 | 5.93085 | 36043 ft | 469 kts | 303° |
| 2026-05-07 11:52 | 51.39606 | 5.84766 | 36044 ft | 470 kts | 309° |
| 2026-05-07 11:52 | 51.44040 | 5.77044 | 36047 ft | 471 kts | 312° |
| 2026-05-07 11:53 | 51.48563 | 5.69434 | 36049 ft | 471 kts | 312° |
| 2026-05-07 11:53 | 51.53083 | 5.61798 | 36067 ft | 471 kts | 312° |
| 2026-05-07 11:54 | 51.57596 | 5.54139 | 36069 ft | 471 kts | 312° |
| 2026-05-07 11:54 | 51.62099 | 5.46468 | 36067 ft | 471 kts | 312° |
| 2026-05-07 11:55 | 51.66597 | 5.38783 | 36065 ft | 471 kts | 312° |
| 2026-05-07 11:55 | 51.71060 | 5.31132 | 36075 ft | 471 kts | 311° |
| 2026-05-07 11:56 | 51.75559 | 5.23394 | 36068 ft | 471 kts | 311° |
| 2026-05-07 11:56 | 51.80049 | 5.15648 | 36065 ft | 471 kts | 311° |
| 2026-05-07 11:57 | 51.84525 | 5.07902 | 36066 ft | 471 kts | 311° |
| 2026-05-07 11:57 | 51.89002 | 5.00130 | 36065 ft | 471 kts | 311° |
| 2026-05-07 11:58 | 51.93470 | 4.92349 | 36069 ft | 471 kts | 311° |
| 2026-05-07 11:58 | 51.97937 | 4.84542 | 36065 ft | 472 kts | 311° |
| 2026-05-07 11:59 | 52.02403 | 4.76719 | 36065 ft | 472 kts | 311° |
| 2026-05-07 11:59 | 52.06866 | 4.68871 | 36067 ft | 472 kts | 311° |
| 2026-05-07 12:00 | 52.11326 | 4.61007 | 36067 ft | 472 kts | 311° |
| 2026-05-07 12:00 | 52.15781 | 4.53128 | 36066 ft | 472 kts | 311° |
| 2026-05-07 12:01 | 52.20207 | 4.45268 | 36081 ft | 473 kts | 311° |
| 2026-05-07 12:01 | 52.24658 | 4.37340 | 36070 ft | 474 kts | 311° |
| 2026-05-07 12:02 | 52.29114 | 4.29387 | 36084 ft | 474 kts | 311° |
| 2026-05-07 12:02 | 52.33567 | 4.21412 | 36088 ft | 474 kts | 311° |
| 2026-05-07 12:03 | 52.38007 | 4.13424 | 36091 ft | 474 kts | 311° |
| 2026-05-07 12:03 | 52.42447 | 4.05423 | 36093 ft | 474 kts | 311° |
| 2026-05-07 12:04 | 52.46847 | 3.97455 | 36102 ft | 474 kts | 311° |
| 2026-05-07 12:04 | 52.51296 | 3.89364 | 36105 ft | 477 kts | 312° |
| 2026-05-07 12:05 | 52.55750 | 3.81265 | 36103 ft | 477 kts | 312° |
| 2026-05-07 12:05 | 52.60197 | 3.73147 | 36102 ft | 477 kts | 312° |
| 2026-05-07 12:06 | 52.64639 | 3.65004 | 36101 ft | 477 kts | 311° |
| 2026-05-07 12:06 | 52.69042 | 3.56908 | 36105 ft | 476 kts | 311° |
| 2026-05-07 12:07 | 52.73462 | 3.48745 | 36103 ft | 478 kts | 312° |
| 2026-05-07 12:07 | 52.77904 | 3.40526 | 36105 ft | 479 kts | 312° |
| 2026-05-07 12:08 | 52.82344 | 3.32285 | 36113 ft | 479 kts | 312° |
| 2026-05-07 12:08 | 52.86676 | 3.23879 | 36117 ft | 479 kts | 307° |
| 2026-05-07 12:09 | 52.90240 | 3.14538 | 36111 ft | 480 kts | 297° |
| 2026-05-07 12:09 | 52.92845 | 3.04348 | 36113 ft | 480 kts | 288° |
| 2026-05-07 12:10 | 52.94508 | 2.93608 | 36117 ft | 480 kts | 282° |
| 2026-05-07 12:10 | 52.95910 | 2.82760 | 36113 ft | 480 kts | 282° |
| 2026-05-07 12:11 | 52.97308 | 2.71895 | 36108 ft | 480 kts | 282° |
| 2026-05-07 12:11 | 52.98708 | 2.61027 | 36108 ft | 481 kts | 282° |
| 2026-05-07 12:12 | 53.00091 | 2.50242 | 36120 ft | 481 kts | 282° |
| 2026-05-07 12:12 | 53.01475 | 2.39368 | 36109 ft | 481 kts | 282° |
| 2026-05-07 12:13 | 53.02853 | 2.28456 | 36112 ft | 481 kts | 282° |
| 2026-05-07 12:13 | 53.04217 | 2.17564 | 36115 ft | 481 kts | 282° |
| 2026-05-07 12:14 | 53.05570 | 2.06665 | 36108 ft | 481 kts | 281° |
| 2026-05-07 12:14 | 53.06912 | 1.95743 | 36105 ft | 481 kts | 281° |
| 2026-05-07 12:15 | 53.08234 | 1.84881 | 36116 ft | 481 kts | 281° |
| 2026-05-07 12:15 | 53.09556 | 1.73934 | 36115 ft | 481 kts | 281° |
| 2026-05-07 12:16 | 53.10867 | 1.62996 | 36106 ft | 481 kts | 281° |
| 2026-05-07 12:16 | 53.12169 | 1.52047 | 36104 ft | 481 kts | 281° |
| 2026-05-07 12:17 | 53.13461 | 1.41090 | 36097 ft | 482 kts | 281° |
| 2026-05-07 12:17 | 53.14744 | 1.30112 | 36100 ft | 482 kts | 281° |
| 2026-05-07 12:18 | 53.16007 | 1.19205 | 36108 ft | 481 kts | 281° |
| 2026-05-07 12:18 | 53.17270 | 1.08220 | 36107 ft | 482 kts | 280° |
| 2026-05-07 12:19 | 53.18522 | 0.97239 | 36087 ft | 482 kts | 280° |
| 2026-05-07 12:19 | 53.19763 | 0.86245 | 36088 ft | 482 kts | 280° |
| 2026-05-07 12:20 | 53.20997 | 0.75229 | 36084 ft | 482 kts | 280° |
| 2026-05-07 12:20 | 53.22218 | 0.64214 | 36090 ft | 482 kts | 280° |
| 2026-05-07 12:21 | 53.23431 | 0.53189 | 36072 ft | 482 kts | 280° |
| 2026-05-07 12:21 | 53.24633 | 0.42163 | 36073 ft | 482 kts | 279° |
| 2026-05-07 12:22 | 53.25819 | 0.31182 | 36066 ft | 481 kts | 279° |
| 2026-05-07 12:22 | 53.26999 | 0.20165 | 36062 ft | 481 kts | 279° |
| 2026-05-07 12:23 | 53.28167 | 0.09134 | 36060 ft | 481 kts | 279° |
| 2026-05-07 12:23 | 53.29325 | -0.01898 | 36077 ft | 481 kts | 279° |
| 2026-05-07 12:24 | 53.30475 | -0.12933 | 36070 ft | 481 kts | 279° |
| 2026-05-07 12:24 | 53.31420 | -0.22102 | 36071 ft | 481 kts | 279° |
| 2026-05-07 12:25 | 53.32549 | -0.33152 | 36069 ft | 481 kts | 279° |
| 2026-05-07 12:25 | 53.33667 | -0.44204 | 36073 ft | 481 kts | 279° |
| 2026-05-07 12:26 | 53.34778 | -0.55274 | 36075 ft | 481 kts | 278° |
| 2026-05-07 12:26 | 53.35875 | -0.66337 | 36072 ft | 481 kts | 278° |
| 2026-05-07 12:27 | 53.36966 | -0.77404 | 36073 ft | 481 kts | 278° |
| 2026-05-07 12:27 | 53.38037 | -0.88401 | 36070 ft | 481 kts | 278° |
| 2026-05-07 12:28 | 53.39105 | -0.99477 | 36070 ft | 481 kts | 278° |
| 2026-05-07 12:28 | 53.40165 | -1.10563 | 36069 ft | 481 kts | 278° |
| 2026-05-07 12:29 | 53.41213 | -1.21666 | 36062 ft | 481 kts | 278° |
| 2026-05-07 12:29 | 53.42251 | -1.32792 | 36061 ft | 482 kts | 278° |
| 2026-05-07 12:30 | 53.43279 | -1.43899 | 36062 ft | 481 kts | 278° |
| 2026-05-07 12:30 | 53.44296 | -1.55017 | 36061 ft | 482 kts | 277° |
| 2026-05-07 12:31 | 53.45305 | -1.66144 | 36055 ft | 481 kts | 277° |
| 2026-05-07 12:31 | 53.46302 | -1.77278 | 36052 ft | 482 kts | 277° |
| 2026-05-07 12:32 | 53.47289 | -1.88428 | 36044 ft | 482 kts | 277° |
| 2026-05-07 12:32 | 53.48270 | -1.99610 | 36044 ft | 482 kts | 277° |
| 2026-05-07 12:33 | 53.49712 | -2.16302 | 36041 ft | 482 kts | 277° |
| 2026-05-07 12:33 | 53.50662 | -2.27474 | 36038 ft | 482 kts | 277° |
| 2026-05-07 12:34 | 53.51602 | -2.38631 | 36039 ft | 482 kts | 276° |
| 2026-05-07 12:34 | 53.52531 | -2.49808 | 36039 ft | 481 kts | 276° |
| 2026-05-07 12:35 | 53.53447 | -2.60904 | 36040 ft | 482 kts | 276° |
| 2026-05-07 12:35 | 53.54360 | -2.72135 | 36032 ft | 482 kts | 276° |
| 2026-05-07 12:36 | 53.55257 | -2.83311 | 36045 ft | 482 kts | 276° |
| 2026-05-07 12:36 | 53.56145 | -2.94500 | 36048 ft | 482 kts | 276° |
| 2026-05-07 12:37 | 53.57021 | -3.05691 | 36044 ft | 481 kts | 276° |
| 2026-05-07 12:37 | 53.57890 | -3.16889 | 36054 ft | 481 kts | 276° |
| 2026-05-07 12:38 | 53.58745 | -3.28069 | 36042 ft | 481 kts | 275° |
| 2026-05-07 12:38 | 53.59590 | -3.39258 | 36036 ft | 481 kts | 275° |
| 2026-05-07 12:39 | 53.60424 | -3.50442 | 36034 ft | 481 kts | 275° |
| 2026-05-07 12:39 | 53.61245 | -3.61609 | 36022 ft | 481 kts | 275° |
| 2026-05-07 12:40 | 53.61877 | -3.72836 | 36018 ft | 480 kts | 272° |
| 2026-05-07 12:40 | 53.62337 | -3.84074 | 36015 ft | 480 kts | 272° |
| 2026-05-07 12:41 | 53.62786 | -3.95303 | 36012 ft | 480 kts | 272° |
| 2026-05-07 12:41 | 53.63231 | -4.06531 | 36012 ft | 480 kts | 272° |
| 2026-05-07 12:42 | 53.63669 | -4.17781 | 36018 ft | 480 kts | 271° |
| 2026-05-07 12:42 | 53.64093 | -4.29011 | 36011 ft | 479 kts | 271° |
| 2026-05-07 12:43 | 53.64505 | -4.40237 | 36005 ft | 479 kts | 271° |
| 2026-05-07 12:43 | 53.64906 | -4.51379 | 36004 ft | 479 kts | 271° |
| 2026-05-07 12:44 | 53.65299 | -4.62602 | 36004 ft | 478 kts | 271° |
| 2026-05-07 12:44 | 53.65682 | -4.73797 | 36002 ft | 477 kts | 271° |
| 2026-05-07 12:45 | 53.66049 | -4.84977 | 35999 ft | 477 kts | 270° |
| 2026-05-07 12:45 | 53.66413 | -4.96151 | 35998 ft | 477 kts | 270° |
| 2026-05-07 12:46 | 53.66768 | -5.07358 | 35993 ft | 477 kts | 270° |
| 2026-05-07 12:46 | 53.67109 | -5.18537 | 35993 ft | 477 kts | 270° |
| 2026-05-07 12:47 | 53.67436 | -5.29712 | 35994 ft | 476 kts | 270° |
| 2026-05-07 12:47 | 53.67746 | -5.40887 | 35990 ft | 476 kts | 270° |
| 2026-05-07 12:48 | 53.68405 | -5.51967 | 35990 ft | 478 kts | 276° |
| 2026-05-07 12:48 | 53.69724 | -5.63006 | 35983 ft | 480 kts | 280° |
| 2026-05-07 12:49 | 53.71214 | -5.73991 | 35980 ft | 480 kts | 280° |
| 2026-05-07 12:49 | 53.72698 | -5.85009 | 35974 ft | 480 kts | 280° |
| 2026-05-07 12:50 | 53.74165 | -5.96016 | 35974 ft | 480 kts | 280° |
| 2026-05-07 12:50 | 53.75620 | -6.07041 | 35966 ft | 480 kts | 280° |
| 2026-05-07 12:51 | 53.77063 | -6.18062 | 35965 ft | 480 kts | 279° |
| 2026-05-07 12:51 | 53.78489 | -6.29041 | 35969 ft | 479 kts | 279° |
| 2026-05-07 12:52 | 53.79911 | -6.40067 | 35959 ft | 479 kts | 279° |
| 2026-05-07 12:52 | 53.81321 | -6.51103 | 35955 ft | 479 kts | 279° |
| 2026-05-07 12:53 | 53.82722 | -6.62140 | 35953 ft | 478 kts | 279° |
| 2026-05-07 12:53 | 53.84106 | -6.73143 | 35948 ft | 477 kts | 279° |
| 2026-05-07 12:54 | 53.85484 | -6.84184 | 35956 ft | 477 kts | 278° |
| 2026-05-07 12:54 | 53.86840 | -6.95126 | 35939 ft | 476 kts | 278° |
| 2026-05-07 12:55 | 53.88192 | -7.06137 | 35935 ft | 476 kts | 278° |
| 2026-05-07 12:55 | 53.89533 | -7.17144 | 35927 ft | 476 kts | 278° |
| 2026-05-07 12:56 | 53.90865 | -7.28169 | 35930 ft | 476 kts | 278° |
| 2026-05-07 12:56 | 53.92187 | -7.39193 | 35935 ft | 475 kts | 278° |
| 2026-05-07 12:57 | 53.93495 | -7.50193 | 35923 ft | 474 kts | 278° |
| 2026-05-07 12:57 | 53.94781 | -7.61106 | 35914 ft | 474 kts | 278° |
| 2026-05-07 12:58 | 53.96070 | -7.72129 | 35914 ft | 474 kts | 278° |
| 2026-05-07 12:58 | 53.97345 | -7.83125 | 35911 ft | 474 kts | 278° |
| 2026-05-07 12:59 | 53.98610 | -7.94135 | 35929 ft | 473 kts | 277° |
| 2026-05-07 12:59 | 53.99863 | -8.05106 | 35901 ft | 472 kts | 277° |
| 2026-05-07 13:00 | 54.01100 | -8.16065 | 35911 ft | 471 kts | 277° |
| 2026-05-07 13:00 | 54.02328 | -8.27032 | 35908 ft | 471 kts | 277° |
| 2026-05-07 13:01 | 54.03539 | -8.37945 | 35908 ft | 471 kts | 277° |
| 2026-05-07 13:01 | 54.04748 | -8.48932 | 35916 ft | 471 kts | 277° |
| 2026-05-07 13:02 | 54.05944 | -8.59893 | 35912 ft | 470 kts | 277° |
| 2026-05-07 13:02 | 54.07131 | -8.70865 | 35905 ft | 470 kts | 277° |
| 2026-05-07 13:03 | 54.08306 | -8.81829 | 35908 ft | 470 kts | 277° |
| 2026-05-07 13:03 | 54.09470 | -8.92792 | 35903 ft | 469 kts | 277° |
| 2026-05-07 13:04 | 54.10616 | -9.03691 | 35915 ft | 469 kts | 277° |
| 2026-05-07 13:04 | 54.11757 | -9.14637 | 35913 ft | 467 kts | 277° |
| 2026-05-07 13:05 | 54.12887 | -9.25568 | 35901 ft | 467 kts | 277° |
| 2026-05-07 13:05 | 54.14007 | -9.36507 | 35920 ft | 466 kts | 276° |
| 2026-05-07 13:06 | 54.15107 | -9.47345 | 35918 ft | 465 kts | 276° |
| 2026-05-07 13:06 | 54.16200 | -9.58245 | 35927 ft | 464 kts | 276° |
| 2026-05-07 13:07 | 54.17278 | -9.69097 | 35914 ft | 462 kts | 276° |
| 2026-05-07 13:07 | 54.18341 | -9.79883 | 35917 ft | 462 kts | 276° |
| 2026-05-07 13:08 | 54.19400 | -9.90735 | 35914 ft | 462 kts | 276° |
| 2026-05-07 13:08 | 54.20448 | -10.01576 | 35914 ft | 462 kts | 276° |
| 2026-05-07 13:09 | 54.21486 | -10.12433 | 35935 ft | 462 kts | 276° |
| 2026-05-07 13:09 | 54.22513 | -10.23260 | 35915 ft | 460 kts | 276° |
| 2026-05-07 13:10 | 54.23526 | -10.34061 | 35911 ft | 460 kts | 275° |
| 2026-05-07 13:10 | 54.24529 | -10.44868 | 35911 ft | 459 kts | 275° |
| 2026-05-07 13:11 | 54.25523 | -10.55684 | 35913 ft | 459 kts | 275° |
| 2026-05-07 13:11 | 54.26501 | -10.66442 | 35909 ft | 459 kts | 275° |
| 2026-05-07 13:12 | 54.27477 | -10.77252 | 35930 ft | 458 kts | 275° |
| 2026-05-07 13:12 | 54.28280 | -10.86233 | 35908 ft | 458 kts | 275° |
| 2026-05-07 13:13 | 54.29232 | -10.97034 | 35908 ft | 458 kts | 275° |
| 2026-05-07 13:13 | 54.30328 | -11.09599 | 35909 ft | 458 kts | 274° |
| 2026-05-07 13:14 | 54.31104 | -11.18592 | 35910 ft | 458 kts | 274° |
| 2026-05-07 13:14 | 54.32029 | -11.29402 | 35912 ft | 458 kts | 274° |
| 2026-05-07 13:15 | 54.32945 | -11.40231 | 35911 ft | 458 kts | 274° |
| 2026-05-07 13:15 | 54.33850 | -11.51056 | 35909 ft | 458 kts | 274° |
| 2026-05-07 13:16 | 54.34746 | -11.61875 | 35909 ft | 458 kts | 274° |
| 2026-05-07 13:16 | 54.35631 | -11.72700 | 35911 ft | 458 kts | 274° |
| 2026-05-07 13:17 | 54.36508 | -11.83524 | 35927 ft | 458 kts | 274° |
| 2026-05-07 13:17 | 54.37374 | -11.94357 | 35911 ft | 458 kts | 274° |
| 2026-05-07 13:18 | 54.38230 | -12.05197 | 35908 ft | 458 kts | 274° |
| 2026-05-07 13:18 | 54.39072 | -12.15982 | 35908 ft | 458 kts | 274° |
| 2026-05-07 13:19 | 54.39910 | -12.26826 | 35914 ft | 457 kts | 273° |
| 2026-05-07 13:19 | 54.40615 | -12.37681 | 35927 ft | 455 kts | 269° |
| 2026-05-07 13:20 | 54.40638 | -12.48527 | 35915 ft | 452 kts | 263° |
| 2026-05-07 13:20 | 54.39932 | -12.59232 | 35911 ft | 449 kts | 257° |
| 2026-05-07 13:21 | 54.38531 | -12.69707 | 35914 ft | 447 kts | 252° |
| 2026-05-07 13:21 | 54.36928 | -12.79962 | 35914 ft | 447 kts | 252° |
| 2026-05-07 13:22 | 54.35302 | -12.90277 | 35931 ft | 447 kts | 252° |
| 2026-05-07 13:22 | 54.33660 | -13.00597 | 35921 ft | 448 kts | 252° |
| 2026-05-07 13:23 | 54.32013 | -13.10921 | 35920 ft | 448 kts | 252° |
| 2026-05-07 13:23 | 54.30353 | -13.21256 | 35919 ft | 448 kts | 252° |
| 2026-05-07 13:24 | 54.28685 | -13.31573 | 35921 ft | 448 kts | 252° |
| 2026-05-07 13:24 | 54.27007 | -13.41880 | 35938 ft | 448 kts | 252° |
| 2026-05-07 13:25 | 54.25325 | -13.52145 | 35934 ft | 447 kts | 252° |
| 2026-05-07 13:25 | 54.23639 | -13.62396 | 35931 ft | 447 kts | 252° |
| 2026-05-07 13:26 | 54.21951 | -13.72587 | 35925 ft | 448 kts | 252° |
| 2026-05-07 13:26 | 54.20243 | -13.82841 | 35931 ft | 448 kts | 252° |
| 2026-05-07 13:27 | 54.18525 | -13.93083 | 35951 ft | 448 kts | 252° |
| 2026-05-07 13:27 | 54.16803 | -14.03299 | 35941 ft | 447 kts | 252° |
| 2026-05-07 13:28 | 54.15072 | -14.13511 | 35941 ft | 447 kts | 252° |
| 2026-05-07 13:28 | 54.13330 | -14.23724 | 35941 ft | 447 kts | 252° |
| 2026-05-07 13:29 | 54.11573 | -14.33956 | 36318 ft | 449 kts | 252° |
| 2026-05-07 13:29 | 54.10695 | -14.39048 | 36653 ft | 447 kts | 252° |
| 2026-05-07 13:29 | 54.09822 | -14.44088 | 36908 ft | 448 kts | 252° |
| 2026-05-07 13:30 | 54.08050 | -14.54310 | 36947 ft | 450 kts | 252° |
| 2026-05-07 13:30 | 54.06266 | -14.64541 | 36952 ft | 450 kts | 252° |
| 2026-05-07 13:31 | 54.04472 | -14.74764 | 36958 ft | 450 kts | 252° |
| 2026-05-07 13:31 | 54.02689 | -14.84921 | 36956 ft | 450 kts | 253° |
| 2026-05-07 13:32 | 54.01278 | -14.95312 | 36963 ft | 451 kts | 258° |
| 2026-05-07 13:32 | 54.00474 | -15.05922 | 36961 ft | 452 kts | 264° |
| 2026-05-07 13:33 | 54.00296 | -15.16658 | 36967 ft | 454 kts | 269° |
| 2026-05-07 13:33 | 54.00485 | -15.27412 | 36967 ft | 454 kts | 270° |
| 2026-05-07 13:34 | 54.00775 | -15.43534 | 36969 ft | 454 kts | 269° |
| 2026-05-07 13:35 | 54.00952 | -15.54290 | 36980 ft | 454 kts | 270° |
| 2026-05-07 13:35 | 54.01123 | -15.64965 | 36976 ft | 454 kts | 270° |
| 2026-05-07 13:36 | 54.01286 | -15.75701 | 36973 ft | 453 kts | 270° |
| 2026-05-07 13:36 | 54.01438 | -15.86435 | 36980 ft | 453 kts | 270° |
| 2026-05-07 13:37 | 54.01580 | -15.97164 | 36982 ft | 453 kts | 269° |
| 2026-05-07 13:37 | 54.01710 | -16.07913 | 36986 ft | 454 kts | 270° |
| 2026-05-07 13:38 | 54.01834 | -16.18655 | 36984 ft | 454 kts | 270° |
| 2026-05-07 13:38 | 54.01949 | -16.29398 | 36985 ft | 454 kts | 270° |
| 2026-05-07 13:39 | 54.02053 | -16.40144 | 36987 ft | 453 kts | 269° |
| 2026-05-07 13:39 | 54.02147 | -16.50886 | 36991 ft | 453 kts | 269° |
| 2026-05-07 13:40 | 54.02232 | -16.61639 | 36988 ft | 453 kts | 269° |
| 2026-05-07 13:40 | 54.02307 | -16.72394 | 36994 ft | 453 kts | 269° |
| 2026-05-07 13:41 | 54.02372 | -16.83060 | 36995 ft | 453 kts | 269° |
| 2026-05-07 13:41 | 54.02428 | -16.93805 | 37002 ft | 453 kts | 269° |
| 2026-05-07 13:42 | 54.02475 | -17.04549 | 37002 ft | 453 kts | 269° |
| 2026-05-07 13:42 | 54.02509 | -17.15299 | 37004 ft | 453 kts | 269° |
| 2026-05-07 13:43 | 54.02537 | -17.26058 | 37017 ft | 453 kts | 269° |
| 2026-05-07 13:43 | 54.02555 | -17.36810 | 37015 ft | 453 kts | 269° |
| 2026-05-07 13:44 | 54.02564 | -17.47485 | 37014 ft | 453 kts | 269° |
| 2026-05-07 13:44 | 54.02563 | -17.58219 | 37019 ft | 453 kts | 269° |
| 2026-05-07 13:45 | 54.02550 | -17.68968 | 37019 ft | 454 kts | 269° |
| 2026-05-07 13:45 | 54.02530 | -17.79722 | 37018 ft | 454 kts | 269° |
| 2026-05-07 13:46 | 54.02501 | -17.90479 | 37018 ft | 454 kts | 269° |
| 2026-05-07 13:46 | 54.02461 | -18.01273 | 37029 ft | 454 kts | 269° |
| 2026-05-07 13:47 | 54.02412 | -18.12033 | 37030 ft | 454 kts | 269° |
| 2026-05-07 13:47 | 54.02352 | -18.22728 | 37025 ft | 454 kts | 269° |
| 2026-05-07 13:48 | 54.02282 | -18.33498 | 37034 ft | 455 kts | 269° |
| 2026-05-07 13:48 | 54.02205 | -18.44293 | 37032 ft | 455 kts | 269° |
| 2026-05-07 13:49 | 54.02118 | -18.55074 | 37030 ft | 455 kts | 269° |
| 2026-05-07 13:49 | 54.02020 | -18.65859 | 37043 ft | 455 kts | 269° |
| 2026-05-07 13:50 | 54.01912 | -18.76680 | 37028 ft | 455 kts | 269° |
| 2026-05-07 13:50 | 54.01794 | -18.87467 | 37044 ft | 456 kts | 269° |
| 2026-05-07 13:51 | 54.01668 | -18.98210 | 37059 ft | 456 kts | 269° |
| 2026-05-07 13:51 | 54.01531 | -19.09016 | 37054 ft | 457 kts | 269° |
| 2026-05-07 13:52 | 54.01385 | -19.19837 | 37052 ft | 457 kts | 269° |
| 2026-05-07 13:52 | 54.01229 | -19.30659 | 37051 ft | 457 kts | 269° |
| 2026-05-07 13:53 | 54.01062 | -19.41477 | 37057 ft | 457 kts | 269° |
| 2026-05-07 13:53 | 54.00887 | -19.52310 | 37062 ft | 457 kts | 269° |
| 2026-05-07 13:54 | 54.00703 | -19.63075 | 37062 ft | 457 kts | 268° |
| 2026-05-07 13:54 | 54.00508 | -19.73907 | 37068 ft | 457 kts | 268° |
| 2026-05-07 13:55 | 54.00303 | -19.84732 | 37067 ft | 457 kts | 268° |
| 2026-05-07 13:55 | 54.00085 | -19.95554 | 37065 ft | 458 kts | 268° |
| 2026-05-07 13:56 | 53.99631 | -20.06375 | 37072 ft | 458 kts | 265° |
| 2026-05-07 13:56 | 53.99011 | -20.17174 | 37073 ft | 458 kts | 265° |
| 2026-05-07 13:57 | 53.98380 | -20.27970 | 37069 ft | 458 kts | 265° |
| 2026-05-07 13:57 | 53.97738 | -20.38765 | 37074 ft | 458 kts | 265° |
| 2026-05-07 13:58 | 53.97085 | -20.49569 | 37079 ft | 459 kts | 265° |
| 2026-05-07 13:58 | 53.96429 | -20.60301 | 37081 ft | 459 kts | 265° |
| 2026-05-07 13:59 | 53.95759 | -20.71098 | 37084 ft | 459 kts | 265° |
| 2026-05-07 13:59 | 53.95079 | -20.81887 | 37087 ft | 459 kts | 265° |
| 2026-05-07 14:00 | 53.94389 | -20.92678 | 37073 ft | 459 kts | 265° |
| 2026-05-07 14:00 | 53.93686 | -21.03469 | 37094 ft | 460 kts | 265° |
| 2026-05-07 14:01 | 53.92977 | -21.14271 | 37094 ft | 460 kts | 265° |
| 2026-05-07 14:01 | 53.92379 | -21.23252 | 37092 ft | 460 kts | 265° |
| 2026-05-07 14:02 | 53.91651 | -21.34058 | 37100 ft | 460 kts | 264° |
| 2026-05-07 14:02 | 53.90912 | -21.44859 | 37100 ft | 460 kts | 264° |
| 2026-05-07 14:03 | 53.90161 | -21.55663 | 37094 ft | 461 kts | 265° |
| 2026-05-07 14:03 | 53.89402 | -21.66477 | 37099 ft | 461 kts | 264° |
| 2026-05-07 14:04 | 53.88633 | -21.77289 | 37103 ft | 461 kts | 264° |
| 2026-05-07 14:04 | 53.87854 | -21.88104 | 37103 ft | 461 kts | 264° |
| 2026-05-07 14:05 | 53.87070 | -21.98841 | 37108 ft | 461 kts | 264° |
| 2026-05-07 14:05 | 53.86271 | -22.09657 | 37111 ft | 461 kts | 264° |
| 2026-05-07 14:06 | 53.85461 | -22.20466 | 37112 ft | 461 kts | 264° |
| 2026-05-07 14:06 | 53.84643 | -22.31269 | 37111 ft | 461 kts | 264° |
| 2026-05-07 14:07 | 53.83820 | -22.41989 | 37113 ft | 461 kts | 264° |
| 2026-05-07 14:07 | 53.82982 | -22.52779 | 37098 ft | 461 kts | 264° |
| 2026-05-07 14:08 | 53.82132 | -22.63572 | 37110 ft | 462 kts | 264° |
| 2026-05-07 14:08 | 53.81275 | -22.74372 | 37122 ft | 462 kts | 264° |
| 2026-05-07 14:09 | 53.80407 | -22.85171 | 37123 ft | 462 kts | 264° |
| 2026-05-07 14:09 | 53.79529 | -22.95960 | 37130 ft | 462 kts | 264° |
| 2026-05-07 14:10 | 53.78642 | -23.06743 | 37109 ft | 462 kts | 264° |
| 2026-05-07 14:10 | 53.77741 | -23.17535 | 37125 ft | 463 kts | 264° |
| 2026-05-07 14:11 | 53.76840 | -23.28255 | 37127 ft | 463 kts | 264° |
| 2026-05-07 14:11 | 53.75923 | -23.39039 | 37138 ft | 463 kts | 264° |
| 2026-05-07 14:12 | 53.74996 | -23.49827 | 37131 ft | 463 kts | 264° |
| 2026-05-07 14:12 | 53.74058 | -23.60605 | 37120 ft | 463 kts | 264° |
| 2026-05-07 14:13 | 53.73109 | -23.71382 | 37137 ft | 463 kts | 264° |
| 2026-05-07 14:13 | 53.72150 | -23.82195 | 37143 ft | 463 kts | 264° |
| 2026-05-07 14:14 | 53.71182 | -23.92982 | 37141 ft | 464 kts | 264° |
| 2026-05-07 14:14 | 53.70204 | -24.03763 | 37144 ft | 464 kts | 264° |
| 2026-05-07 14:15 | 53.69215 | -24.14538 | 37130 ft | 464 kts | 264° |
| 2026-05-07 14:15 | 53.68217 | -24.25303 | 37149 ft | 464 kts | 264° |
| 2026-05-07 14:16 | 53.67211 | -24.36079 | 37153 ft | 464 kts | 264° |
| 2026-05-07 14:16 | 53.66201 | -24.46773 | 37152 ft | 464 kts | 264° |
| 2026-05-07 14:17 | 53.65174 | -24.57547 | 37154 ft | 464 kts | 264° |
| 2026-05-07 14:17 | 53.64134 | -24.68312 | 37141 ft | 464 kts | 264° |
| 2026-05-07 14:18 | 53.63087 | -24.79070 | 37156 ft | 465 kts | 264° |
| 2026-05-07 14:18 | 53.62032 | -24.89825 | 37157 ft | 465 kts | 264° |
| 2026-05-07 14:19 | 53.60966 | -25.00574 | 37156 ft | 465 kts | 264° |
| 2026-05-07 14:19 | 53.59888 | -25.11343 | 37160 ft | 465 kts | 263° |
| 2026-05-07 14:20 | 53.58804 | -25.22033 | 37152 ft | 465 kts | 264° |
| 2026-05-07 14:20 | 53.57705 | -25.32815 | 37164 ft | 465 kts | 264° |
| 2026-05-07 14:21 | 53.56600 | -25.43553 | 37172 ft | 465 kts | 264° |
| 2026-05-07 14:21 | 53.55484 | -25.54294 | 37172 ft | 465 kts | 264° |
| 2026-05-07 14:22 | 53.54358 | -25.65032 | 37170 ft | 465 kts | 264° |
| 2026-05-07 14:22 | 53.53218 | -25.75764 | 37166 ft | 464 kts | 264° |
| 2026-05-07 14:23 | 53.52077 | -25.86468 | 37173 ft | 464 kts | 264° |
| 2026-05-07 14:23 | 53.50926 | -25.97169 | 37176 ft | 464 kts | 264° |
| 2026-05-07 14:24 | 53.49760 | -26.07898 | 37177 ft | 465 kts | 264° |
| 2026-05-07 14:24 | 53.48596 | -26.18520 | 37149 ft | 465 kts | 264° |
| 2026-05-07 14:25 | 53.47409 | -26.29213 | 37175 ft | 463 kts | 264° |
| 2026-05-07 14:25 | 53.46223 | -26.39868 | 37183 ft | 463 kts | 264° |
| 2026-05-07 14:26 | 53.45026 | -26.50513 | 37185 ft | 463 kts | 264° |
| 2026-05-07 14:26 | 53.43819 | -26.61164 | 37183 ft | 463 kts | 264° |
| 2026-05-07 14:27 | 53.42609 | -26.71732 | 37152 ft | 463 kts | 264° |
| 2026-05-07 14:27 | 53.41380 | -26.82339 | 37184 ft | 462 kts | 264° |
| 2026-05-07 14:28 | 53.40153 | -26.92916 | 37188 ft | 462 kts | 264° |
| 2026-05-07 14:28 | 53.38915 | -27.03493 | 37190 ft | 462 kts | 264° |
| 2026-05-07 14:29 | 53.37666 | -27.14059 | 37197 ft | 462 kts | 264° |
| 2026-05-07 14:29 | 53.36404 | -27.24651 | 37200 ft | 462 kts | 264° |
| 2026-05-07 14:30 | 53.35135 | -27.35219 | 37202 ft | 462 kts | 264° |
| 2026-05-07 14:30 | 53.33862 | -27.45734 | 37202 ft | 462 kts | 264° |
| 2026-05-07 14:31 | 53.32574 | -27.56289 | 37205 ft | 462 kts | 264° |
| 2026-05-07 14:31 | 53.31277 | -27.66828 | 37205 ft | 462 kts | 264° |
| 2026-05-07 14:32 | 53.29967 | -27.77362 | 37188 ft | 461 kts | 264° |
| 2026-05-07 14:32 | 53.28654 | -27.87879 | 37202 ft | 460 kts | 264° |
| 2026-05-07 14:33 | 53.27334 | -27.98385 | 37207 ft | 460 kts | 264° |
| 2026-05-07 14:33 | 53.26006 | -28.08869 | 37210 ft | 460 kts | 264° |
| 2026-05-07 14:34 | 53.24669 | -28.19339 | 37214 ft | 460 kts | 264° |
| 2026-05-07 14:34 | 53.23318 | -28.29799 | 37208 ft | 459 kts | 264° |
| 2026-05-07 14:35 | 53.21969 | -28.40211 | 37217 ft | 459 kts | 264° |
| 2026-05-07 14:35 | 53.20620 | -28.50557 | 37219 ft | 459 kts | 264° |
| 2026-05-07 14:36 | 53.19247 | -28.60996 | 37225 ft | 459 kts | 264° |
| 2026-05-07 14:36 | 53.17868 | -28.71405 | 37225 ft | 459 kts | 264° |
| 2026-05-07 14:37 | 53.16473 | -28.81817 | 37216 ft | 458 kts | 264° |
| 2026-05-07 14:37 | 53.14379 | -28.97388 | 37235 ft | 458 kts | 264° |
| 2026-05-07 14:38 | 53.12978 | -29.07709 | 37239 ft | 458 kts | 264° |
| 2026-05-07 14:38 | 53.11559 | -29.18079 | 37239 ft | 458 kts | 264° |
| 2026-05-07 14:39 | 53.10128 | -29.28445 | 37218 ft | 458 kts | 264° |
| 2026-05-07 14:39 | 53.08694 | -29.38784 | 37238 ft | 458 kts | 264° |
| 2026-05-07 14:40 | 53.07251 | -29.49126 | 37243 ft | 458 kts | 264° |
| 2026-05-07 14:40 | 53.05792 | -29.59497 | 37247 ft | 458 kts | 264° |
| 2026-05-07 14:41 | 53.04329 | -29.69829 | 37247 ft | 458 kts | 264° |
| 2026-05-07 14:41 | 53.02866 | -29.80067 | 37235 ft | 456 kts | 264° |
| 2026-05-07 14:42 | 53.01391 | -29.90334 | 37248 ft | 455 kts | 264° |
| 2026-05-07 14:42 | 52.99962 | -30.00579 | 37256 ft | 453 kts | 266° |
| 2026-05-07 14:43 | 52.98865 | -30.10852 | 37258 ft | 451 kts | 268° |
| 2026-05-07 14:43 | 52.97783 | -30.21149 | 37257 ft | 451 kts | 267° |
| 2026-05-07 14:44 | 52.96692 | -30.31415 | 37245 ft | 450 kts | 268° |
| 2026-05-07 14:44 | 52.95598 | -30.41650 | 37256 ft | 449 kts | 267° |
| 2026-05-07 14:45 | 52.94497 | -30.51863 | 37262 ft | 449 kts | 267° |
| 2026-05-07 14:45 | 52.93394 | -30.62013 | 37266 ft | 450 kts | 267° |
| 2026-05-07 14:46 | 52.92268 | -30.72281 | 37265 ft | 450 kts | 267° |
| 2026-05-07 14:46 | 52.91138 | -30.82498 | 37250 ft | 449 kts | 267° |
| 2026-05-07 14:47 | 52.90001 | -30.92699 | 37265 ft | 449 kts | 267° |
| 2026-05-07 14:47 | 52.88854 | -31.02898 | 37269 ft | 449 kts | 267° |
| 2026-05-07 14:48 | 52.87706 | -31.13031 | 37274 ft | 449 kts | 267° |
| 2026-05-07 14:48 | 52.86541 | -31.23230 | 37277 ft | 450 kts | 267° |
| 2026-05-07 14:49 | 52.85565 | -31.31704 | 37242 ft | 450 kts | 267° |
| 2026-05-07 14:49 | 52.84191 | -31.43551 | 37261 ft | 450 kts | 266° |
| 2026-05-07 14:50 | 52.83196 | -31.52068 | 37273 ft | 450 kts | 266° |
| 2026-05-07 14:50 | 52.82005 | -31.62180 | 37276 ft | 450 kts | 266° |
| 2026-05-07 14:51 | 52.80797 | -31.72353 | 37277 ft | 450 kts | 266° |
| 2026-05-07 14:51 | 52.79581 | -31.82521 | 37239 ft | 450 kts | 266° |
| 2026-05-07 14:52 | 52.78354 | -31.92706 | 37272 ft | 451 kts | 266° |
| 2026-05-07 14:52 | 52.77117 | -32.02896 | 37282 ft | 452 kts | 266° |
| 2026-05-07 14:53 | 52.75870 | -32.13078 | 37284 ft | 452 kts | 266° |
| 2026-05-07 14:53 | 52.74613 | -32.23271 | 37286 ft | 452 kts | 266° |
| 2026-05-07 14:54 | 52.73350 | -32.33442 | 37280 ft | 452 kts | 266° |
| 2026-05-07 14:54 | 52.72084 | -32.43558 | 37279 ft | 452 kts | 266° |
| 2026-05-07 14:55 | 52.70800 | -32.53739 | 37286 ft | 452 kts | 266° |
| 2026-05-07 14:55 | 52.69509 | -32.63903 | 37283 ft | 452 kts | 266° |
| 2026-05-07 14:56 | 52.68209 | -32.74064 | 37287 ft | 452 kts | 266° |
| 2026-05-07 14:56 | 52.66899 | -32.84223 | 37253 ft | 452 kts | 266° |
| 2026-05-07 14:57 | 52.65581 | -32.94382 | 37281 ft | 453 kts | 265° |
| 2026-05-07 14:57 | 52.64252 | -33.04541 | 37288 ft | 453 kts | 265° |
| 2026-05-07 14:58 | 52.62920 | -33.14653 | 37289 ft | 452 kts | 265° |
| 2026-05-07 14:58 | 52.61576 | -33.24791 | 37289 ft | 453 kts | 265° |
| 2026-05-07 14:59 | 52.60224 | -33.34920 | 37252 ft | 453 kts | 265° |
| 2026-05-07 14:59 | 52.58859 | -33.45062 | 37287 ft | 453 kts | 265° |
| 2026-05-07 15:00 | 52.57488 | -33.55186 | 37294 ft | 453 kts | 265° |
| 2026-05-07 15:00 | 52.56107 | -33.65322 | 37297 ft | 453 kts | 265° |
| 2026-05-07 15:01 | 52.54717 | -33.75446 | 37294 ft | 453 kts | 265° |
| 2026-05-07 15:01 | 52.53327 | -33.85501 | 37266 ft | 453 kts | 265° |
| 2026-05-07 15:02 | 52.51922 | -33.95586 | 37294 ft | 452 kts | 265° |
| 2026-05-07 15:02 | 52.50511 | -34.05658 | 37300 ft | 452 kts | 265° |
| 2026-05-07 15:03 | 52.49092 | -34.15723 | 37301 ft | 452 kts | 265° |
| 2026-05-07 15:03 | 52.47664 | -34.25783 | 37289 ft | 452 kts | 265° |
| 2026-05-07 15:04 | 52.46224 | -34.35854 | 37270 ft | 452 kts | 265° |
| 2026-05-07 15:04 | 52.44790 | -34.45824 | 37299 ft | 451 kts | 265° |
| 2026-05-07 15:05 | 52.43335 | -34.55872 | 37303 ft | 451 kts | 265° |
| 2026-05-07 15:05 | 52.41874 | -34.65885 | 37302 ft | 451 kts | 265° |
| 2026-05-07 15:06 | 52.40406 | -34.75900 | 37303 ft | 451 kts | 265° |
| 2026-05-07 15:06 | 52.38929 | -34.85904 | 37276 ft | 450 kts | 265° |
| 2026-05-07 15:07 | 52.37450 | -34.95856 | 37314 ft | 448 kts | 265° |
| 2026-05-07 15:07 | 52.35976 | -35.05721 | 37301 ft | 448 kts | 265° |
| 2026-05-07 15:08 | 52.34482 | -35.15651 | 37310 ft | 449 kts | 264° |
| 2026-05-07 15:08 | 52.32982 | -35.25564 | 37306 ft | 449 kts | 264° |
| 2026-05-07 15:09 | 52.31466 | -35.35518 | 37271 ft | 448 kts | 264° |
| 2026-05-07 15:09 | 52.29950 | -35.45414 | 37302 ft | 447 kts | 264° |
| 2026-05-07 15:10 | 52.28426 | -35.55291 | 37313 ft | 447 kts | 264° |
| 2026-05-07 15:10 | 52.26895 | -35.65157 | 37311 ft | 447 kts | 264° |
| 2026-05-07 15:11 | 52.25364 | -35.74964 | 37312 ft | 448 kts | 264° |
| 2026-05-07 15:11 | 52.23817 | -35.84819 | 37272 ft | 448 kts | 264° |
| 2026-05-07 15:12 | 52.22259 | -35.94690 | 37306 ft | 448 kts | 264° |
| 2026-05-07 15:12 | 52.20690 | -36.04557 | 37311 ft | 448 kts | 263° |
| 2026-05-07 15:13 | 52.19113 | -36.14415 | 37311 ft | 448 kts | 263° |
| 2026-05-07 15:13 | 52.17544 | -36.24166 | 37311 ft | 447 kts | 263° |
| 2026-05-07 15:14 | 52.15959 | -36.33972 | 37274 ft | 447 kts | 263° |
| 2026-05-07 15:14 | 52.14366 | -36.43783 | 37300 ft | 448 kts | 263° |
| 2026-05-07 15:15 | 52.12758 | -36.53600 | 37309 ft | 448 kts | 263° |
| 2026-05-07 15:15 | 52.11142 | -36.63411 | 37308 ft | 448 kts | 263° |
| 2026-05-07 15:16 | 52.09515 | -36.73236 | 37313 ft | 448 kts | 263° |
| 2026-05-07 15:16 | 52.07886 | -36.83028 | 37284 ft | 448 kts | 262° |
| 2026-05-07 15:17 | 52.06246 | -36.92829 | 37315 ft | 448 kts | 262° |
| 2026-05-07 15:17 | 52.04598 | -37.02608 | 37317 ft | 449 kts | 262° |
| 2026-05-07 15:18 | 52.02940 | -37.12395 | 37317 ft | 448 kts | 262° |
| 2026-05-07 15:18 | 52.01275 | -37.22172 | 37315 ft | 449 kts | 262° |
| 2026-05-07 15:19 | 51.99599 | -37.31954 | 37315 ft | 449 kts | 262° |
| 2026-05-07 15:19 | 51.97916 | -37.41725 | 37314 ft | 449 kts | 262° |
| 2026-05-07 15:20 | 51.96226 | -37.51487 | 37314 ft | 449 kts | 262° |
| 2026-05-07 15:20 | 51.94525 | -37.61253 | 37315 ft | 449 kts | 262° |
| 2026-05-07 15:21 | 51.92831 | -37.70928 | 37314 ft | 447 kts | 262° |
| 2026-05-07 15:21 | 51.91123 | -37.80642 | 37292 ft | 447 kts | 261° |
| 2026-05-07 15:22 | 51.89404 | -37.90361 | 37310 ft | 447 kts | 261° |
| 2026-05-07 15:22 | 51.87677 | -38.00056 | 37304 ft | 448 kts | 261° |
| 2026-05-07 15:23 | 51.85942 | -38.09747 | 37312 ft | 448 kts | 261° |
| 2026-05-07 15:23 | 51.84199 | -38.19435 | 37315 ft | 448 kts | 261° |
| 2026-05-07 15:24 | 51.82450 | -38.29122 | 37294 ft | 448 kts | 261° |
| 2026-05-07 15:24 | 51.80703 | -38.38735 | 37304 ft | 448 kts | 260° |
| 2026-05-07 15:25 | 51.78925 | -38.48452 | 37305 ft | 448 kts | 260° |
| 2026-05-07 15:25 | 51.77148 | -38.58119 | 37306 ft | 448 kts | 260° |
| 2026-05-07 15:26 | 51.75363 | -38.67784 | 37304 ft | 448 kts | 260° |
| 2026-05-07 15:26 | 51.73574 | -38.77437 | 37289 ft | 448 kts | 259° |
| 2026-05-07 15:27 | 51.71772 | -38.87094 | 37298 ft | 449 kts | 259° |
| 2026-05-07 15:27 | 51.69961 | -38.96737 | 37296 ft | 449 kts | 259° |
| 2026-05-07 15:28 | 51.68142 | -39.06376 | 37296 ft | 449 kts | 259° |
| 2026-05-07 15:28 | 51.66321 | -39.15993 | 37299 ft | 448 kts | 259° |
| 2026-05-07 15:29 | 51.64494 | -39.25597 | 37295 ft | 448 kts | 258° |
| 2026-05-07 15:29 | 51.62648 | -39.35231 | 37294 ft | 448 kts | 258° |
| 2026-05-07 15:30 | 51.60814 | -39.44747 | 37299 ft | 448 kts | 258° |
| 2026-05-07 15:30 | 51.58959 | -39.54334 | 37302 ft | 448 kts | 258° |
| 2026-05-07 15:31 | 51.57098 | -39.63912 | 37305 ft | 448 kts | 258° |
| 2026-05-07 15:31 | 51.55225 | -39.73517 | 37287 ft | 449 kts | 258° |
| 2026-05-07 15:32 | 51.53339 | -39.83110 | 37296 ft | 449 kts | 258° |
| 2026-05-07 15:32 | 51.51446 | -39.92691 | 37296 ft | 449 kts | 258° |
| 2026-05-07 15:33 | 51.49833 | -40.02301 | 37296 ft | 446 kts | 263° |
| 2026-05-07 15:33 | 51.48737 | -40.12082 | 37293 ft | 444 kts | 265° |
| 2026-05-07 15:34 | 51.47711 | -40.21873 | 37282 ft | 445 kts | 265° |
| 2026-05-07 15:34 | 51.46672 | -40.31694 | 37288 ft | 446 kts | 265° |
| 2026-05-07 15:35 | 51.45620 | -40.41545 | 37290 ft | 446 kts | 265° |
| 2026-05-07 15:35 | 51.44563 | -40.51368 | 37287 ft | 446 kts | 265° |
| 2026-05-07 15:36 | 51.43502 | -40.61153 | 37285 ft | 446 kts | 265° |
| 2026-05-07 15:36 | 51.42428 | -40.70979 | 37261 ft | 447 kts | 264° |
| 2026-05-07 15:37 | 51.41345 | -40.80830 | 37285 ft | 449 kts | 264° |
| 2026-05-07 15:37 | 51.40254 | -40.90641 | 37280 ft | 449 kts | 264° |
| 2026-05-07 15:38 | 51.39148 | -41.00507 | 37281 ft | 449 kts | 264° |
| 2026-05-07 15:38 | 51.38222 | -41.08715 | 37283 ft | 449 kts | 264° |
| 2026-05-07 15:39 | 51.37101 | -41.18582 | 37278 ft | 449 kts | 264° |
| 2026-05-07 15:39 | 51.35972 | -41.28457 | 37268 ft | 451 kts | 264° |
| 2026-05-07 15:40 | 51.34831 | -41.38342 | 37275 ft | 451 kts | 263° |
| 2026-05-07 15:40 | 51.33683 | -41.48223 | 37274 ft | 451 kts | 263° |
| 2026-05-07 15:41 | 51.32523 | -41.58104 | 37351 ft | 454 kts | 263° |
| 2026-05-07 15:41 | 51.31937 | -41.63071 | 37720 ft | 452 kts | 263° |
| 2026-05-07 15:41 | 51.31360 | -41.67940 | 38143 ft | 449 kts | 263° |
| 2026-05-07 15:42 | 51.30776 | -41.72855 | 38263 ft | 449 kts | 263° |
| 2026-05-07 15:42 | 51.30192 | -41.77756 | 38252 ft | 448 kts | 263° |
| 2026-05-07 15:42 | 51.29016 | -41.87576 | 38273 ft | 449 kts | 263° |
| 2026-05-07 15:43 | 51.27828 | -41.97404 | 38278 ft | 450 kts | 263° |
| 2026-05-07 15:43 | 51.26632 | -42.07226 | 38263 ft | 450 kts | 262° |
| 2026-05-07 15:44 | 51.25436 | -42.16982 | 38275 ft | 450 kts | 262° |
| 2026-05-07 15:44 | 51.24222 | -42.26807 | 38273 ft | 450 kts | 262° |
| 2026-05-07 15:45 | 51.23001 | -42.36622 | 38279 ft | 450 kts | 262° |
| 2026-05-07 15:45 | 51.21777 | -42.46411 | 38276 ft | 448 kts | 262° |
| 2026-05-07 15:46 | 51.19932 | -42.60994 | 38276 ft | 448 kts | 262° |
| 2026-05-07 15:47 | 51.18686 | -42.70754 | 38275 ft | 448 kts | 262° |
| 2026-05-07 15:47 | 51.17434 | -42.80508 | 38243 ft | 448 kts | 262° |
| 2026-05-07 15:48 | 51.16173 | -42.90277 | 38264 ft | 450 kts | 261° |
| 2026-05-07 15:48 | 51.14899 | -43.00047 | 38269 ft | 450 kts | 261° |
| 2026-05-07 15:49 | 51.13618 | -43.09808 | 38273 ft | 450 kts | 261° |
| 2026-05-07 15:49 | 51.12327 | -43.19578 | 38262 ft | 450 kts | 261° |
| 2026-05-07 15:50 | 51.11030 | -43.29329 | 38257 ft | 450 kts | 261° |
| 2026-05-07 15:50 | 51.09727 | -43.39096 | 38253 ft | 451 kts | 261° |
| 2026-05-07 15:51 | 51.08419 | -43.48794 | 38265 ft | 450 kts | 260° |
| 2026-05-07 15:51 | 51.07094 | -43.58545 | 38268 ft | 450 kts | 260° |
| 2026-05-07 15:52 | 51.05760 | -43.68303 | 38262 ft | 450 kts | 260° |
| 2026-05-07 15:52 | 51.04421 | -43.78039 | 38262 ft | 450 kts | 260° |
| 2026-05-07 15:53 | 51.03075 | -43.87771 | 38258 ft | 451 kts | 260° |
| 2026-05-07 15:53 | 51.01717 | -43.97521 | 38261 ft | 451 kts | 260° |
| 2026-05-07 15:54 | 51.00349 | -44.07267 | 38263 ft | 451 kts | 260° |
| 2026-05-07 15:54 | 50.98982 | -44.16946 | 38261 ft | 451 kts | 259° |
| 2026-05-07 15:55 | 50.97599 | -44.26680 | 38266 ft | 451 kts | 259° |
| 2026-05-07 15:55 | 50.96210 | -44.36410 | 38248 ft | 450 kts | 259° |
| 2026-05-07 15:56 | 50.94816 | -44.46105 | 38261 ft | 450 kts | 259° |
| 2026-05-07 15:56 | 50.93410 | -44.55797 | 38260 ft | 450 kts | 259° |
| 2026-05-07 15:57 | 50.91998 | -44.65484 | 38263 ft | 450 kts | 259° |
| 2026-05-07 15:57 | 50.90579 | -44.75159 | 38263 ft | 450 kts | 259° |
| 2026-05-07 15:58 | 50.89147 | -44.84861 | 38263 ft | 450 kts | 259° |
| 2026-05-07 15:58 | 50.87711 | -44.94539 | 38258 ft | 451 kts | 258° |
| 2026-05-07 15:59 | 50.86265 | -45.04213 | 38260 ft | 451 kts | 258° |
| 2026-05-07 15:59 | 50.84821 | -45.13814 | 38263 ft | 451 kts | 258° |
| 2026-05-07 16:00 | 50.83360 | -45.23473 | 38263 ft | 451 kts | 258° |
| 2026-05-07 16:00 | 50.81894 | -45.33126 | 38268 ft | 449 kts | 258° |
| 2026-05-07 16:01 | 50.80427 | -45.42716 | 38262 ft | 447 kts | 257° |
| 2026-05-07 16:01 | 50.78950 | -45.52299 | 38266 ft | 448 kts | 257° |
| 2026-05-07 16:02 | 50.77468 | -45.61855 | 38263 ft | 448 kts | 257° |
| 2026-05-07 16:02 | 50.75984 | -45.71373 | 38263 ft | 448 kts | 257° |
| 2026-05-07 16:03 | 50.74485 | -45.80938 | 38263 ft | 448 kts | 257° |
| 2026-05-07 16:03 | 50.72979 | -45.90497 | 38259 ft | 448 kts | 257° |
| 2026-05-07 16:04 | 50.71464 | -46.00054 | 38263 ft | 448 kts | 257° |
| 2026-05-07 16:04 | 50.69938 | -46.09617 | 38260 ft | 448 kts | 257° |
| 2026-05-07 16:05 | 50.68415 | -46.19104 | 38260 ft | 448 kts | 257° |
| 2026-05-07 16:05 | 50.66881 | -46.28643 | 38265 ft | 447 kts | 256° |
| 2026-05-07 16:06 | 50.65334 | -46.38171 | 38260 ft | 447 kts | 256° |
| 2026-05-07 16:06 | 50.63795 | -46.47605 | 38260 ft | 447 kts | 256° |
| 2026-05-07 16:07 | 50.62234 | -46.57100 | 38260 ft | 447 kts | 256° |
| 2026-05-07 16:07 | 50.60669 | -46.66582 | 38260 ft | 447 kts | 256° |
| 2026-05-07 16:08 | 50.59094 | -46.76068 | 38258 ft | 447 kts | 256° |
| 2026-05-07 16:08 | 50.57509 | -46.85568 | 38252 ft | 447 kts | 255° |
| 2026-05-07 16:09 | 50.55923 | -46.95032 | 38254 ft | 446 kts | 255° |
| 2026-05-07 16:09 | 50.54342 | -47.04398 | 38255 ft | 446 kts | 255° |
| 2026-05-07 16:10 | 50.52739 | -47.13841 | 38252 ft | 446 kts | 255° |
| 2026-05-07 16:10 | 50.51136 | -47.23249 | 38253 ft | 441 kts | 255° |
| 2026-05-07 16:11 | 50.49541 | -47.32547 | 38250 ft | 439 kts | 255° |
| 2026-05-07 16:11 | 50.47953 | -47.41756 | 38250 ft | 439 kts | 255° |
| 2026-05-07 16:12 | 50.46348 | -47.51020 | 38252 ft | 439 kts | 255° |
| 2026-05-07 16:12 | 50.44734 | -47.60286 | 38247 ft | 439 kts | 255° |
| 2026-05-07 16:13 | 50.43112 | -47.69549 | 38246 ft | 439 kts | 255° |
| 2026-05-07 16:13 | 50.41484 | -47.78795 | 38246 ft | 439 kts | 255° |
| 2026-05-07 16:14 | 50.39848 | -47.88044 | 38247 ft | 439 kts | 254° |
| 2026-05-07 16:14 | 50.38218 | -47.97209 | 38241 ft | 438 kts | 254° |
| 2026-05-07 16:15 | 50.36573 | -48.06410 | 38247 ft | 438 kts | 254° |
| 2026-05-07 16:15 | 50.34928 | -48.15589 | 38252 ft | 435 kts | 253° |
| 2026-05-07 16:16 | 50.33280 | -48.24706 | 38247 ft | 434 kts | 253° |
| 2026-05-07 16:16 | 50.31627 | -48.33808 | 38242 ft | 434 kts | 253° |
| 2026-05-07 16:17 | 50.29969 | -48.42899 | 38240 ft | 434 kts | 253° |
| 2026-05-07 16:17 | 50.28301 | -48.51995 | 38241 ft | 434 kts | 253° |
| 2026-05-07 16:18 | 50.26624 | -48.61098 | 38241 ft | 434 kts | 253° |
| 2026-05-07 16:18 | 50.24943 | -48.70174 | 38239 ft | 434 kts | 253° |
| 2026-05-07 16:19 | 50.23265 | -48.79196 | 38236 ft | 434 kts | 253° |
| 2026-05-07 16:19 | 50.21569 | -48.88274 | 38235 ft | 434 kts | 253° |
| 2026-05-07 16:20 | 50.19868 | -48.97329 | 38238 ft | 434 kts | 253° |
| 2026-05-07 16:20 | 50.18168 | -49.06337 | 38245 ft | 428 kts | 252° |
| 2026-05-07 16:21 | 50.16494 | -49.15164 | 38237 ft | 425 kts | 252° |
| 2026-05-07 16:21 | 50.14805 | -49.24022 | 38234 ft | 425 kts | 252° |
| 2026-05-07 16:22 | 50.13109 | -49.32878 | 38229 ft | 425 kts | 252° |
| 2026-05-07 16:22 | 50.11410 | -49.41720 | 38230 ft | 425 kts | 252° |
| 2026-05-07 16:23 | 50.09703 | -49.50547 | 38231 ft | 425 kts | 252° |
| 2026-05-07 16:23 | 50.07988 | -49.59377 | 38231 ft | 425 kts | 252° |
| 2026-05-07 16:24 | 50.06271 | -49.68182 | 38230 ft | 425 kts | 252° |
| 2026-05-07 16:24 | 50.04556 | -49.76937 | 38223 ft | 425 kts | 252° |
| 2026-05-07 16:25 | 50.02822 | -49.85754 | 38220 ft | 426 kts | 251° |
| 2026-05-07 16:25 | 50.01076 | -49.94569 | 38222 ft | 426 kts | 251° |
| 2026-05-07 16:26 | 49.99200 | -50.03301 | 38222 ft | 425 kts | 249° |
| 2026-05-07 16:26 | 49.97136 | -50.11920 | 38217 ft | 425 kts | 249° |
| 2026-05-07 16:27 | 49.95066 | -50.20540 | 38217 ft | 425 kts | 249° |
| 2026-05-07 16:27 | 49.92983 | -50.29174 | 38218 ft | 426 kts | 248° |
| 2026-05-07 16:28 | 49.91249 | -50.36330 | 38215 ft | 426 kts | 248° |
| 2026-05-07 16:28 | 49.89150 | -50.44952 | 38214 ft | 426 kts | 248° |
| 2026-05-07 16:29 | 49.87056 | -50.53519 | 38209 ft | 426 kts | 248° |
| 2026-05-07 16:29 | 49.84948 | -50.62116 | 38209 ft | 426 kts | 248° |
| 2026-05-07 16:30 | 49.82830 | -50.70717 | 38209 ft | 426 kts | 248° |
| 2026-05-07 16:30 | 49.80711 | -50.79306 | 38211 ft | 426 kts | 247° |
| 2026-05-07 16:31 | 49.78579 | -50.87890 | 38230 ft | 426 kts | 247° |
| 2026-05-07 16:31 | 49.76454 | -50.96426 | 38204 ft | 423 kts | 247° |
| 2026-05-07 16:32 | 49.74327 | -51.04927 | 38199 ft | 423 kts | 247° |
| 2026-05-07 16:32 | 49.72198 | -51.13408 | 38196 ft | 423 kts | 247° |
| 2026-05-07 16:33 | 49.70063 | -51.21893 | 38195 ft | 423 kts | 246° |
| 2026-05-07 16:33 | 49.67933 | -51.30309 | 38186 ft | 423 kts | 246° |
| 2026-05-07 16:34 | 49.65785 | -51.38767 | 38185 ft | 423 kts | 246° |
| 2026-05-07 16:34 | 49.63628 | -51.47232 | 38183 ft | 423 kts | 246° |
| 2026-05-07 16:35 | 49.61467 | -51.55680 | 38183 ft | 423 kts | 246° |
| 2026-05-07 16:35 | 49.59307 | -51.64122 | 38189 ft | 422 kts | 245° |
| 2026-05-07 16:36 | 49.57136 | -51.72535 | 38169 ft | 422 kts | 245° |
| 2026-05-07 16:36 | 49.54958 | -51.80945 | 38171 ft | 422 kts | 245° |
| 2026-05-07 16:37 | 49.52789 | -51.89305 | 38199 ft | 422 kts | 244° |
| 2026-05-07 16:37 | 49.50609 | -51.97673 | 38165 ft | 420 kts | 244° |
| 2026-05-07 16:38 | 49.48482 | -52.06049 | 38159 ft | 420 kts | 245° |
| 2026-05-07 16:38 | 49.46408 | -52.14475 | 38164 ft | 420 kts | 245° |
| 2026-05-07 16:39 | 49.44324 | -52.22894 | 38165 ft | 420 kts | 245° |
| 2026-05-07 16:39 | 49.42242 | -52.31260 | 38162 ft | 420 kts | 245° |
| 2026-05-07 16:40 | 49.40142 | -52.39657 | 38146 ft | 420 kts | 245° |
| 2026-05-07 16:40 | 49.38035 | -52.48055 | 38136 ft | 420 kts | 245° |
| 2026-05-07 16:41 | 49.35923 | -52.56441 | 38141 ft | 421 kts | 244° |
| 2026-05-07 16:41 | 49.33797 | -52.64837 | 38135 ft | 421 kts | 244° |
| 2026-05-07 16:42 | 49.31667 | -52.73221 | 38136 ft | 421 kts | 244° |
| 2026-05-07 16:42 | 49.29532 | -52.81595 | 38162 ft | 421 kts | 244° |
| 2026-05-07 16:43 | 49.27391 | -52.89979 | 38127 ft | 422 kts | 244° |
| 2026-05-07 16:43 | 49.25252 | -52.98297 | 38122 ft | 422 kts | 244° |
| 2026-05-07 16:44 | 49.23093 | -53.06669 | 38113 ft | 422 kts | 244° |
| 2026-05-07 16:44 | 49.20924 | -53.15052 | 38118 ft | 422 kts | 244° |
| 2026-05-07 16:45 | 49.18752 | -53.23417 | 38103 ft | 422 kts | 244° |
| 2026-05-07 16:45 | 49.16577 | -53.31766 | 38105 ft | 422 kts | 244° |
| 2026-05-07 16:46 | 49.14393 | -53.40111 | 38103 ft | 421 kts | 244° |
| 2026-05-07 16:46 | 49.12225 | -53.48374 | 38101 ft | 421 kts | 244° |
| 2026-05-07 16:47 | 49.10035 | -53.56688 | 38091 ft | 421 kts | 244° |
| 2026-05-07 16:47 | 49.07830 | -53.65029 | 38092 ft | 421 kts | 244° |
| 2026-05-07 16:48 | 49.05629 | -53.73324 | 38119 ft | 421 kts | 243° |
| 2026-05-07 16:48 | 49.03420 | -53.81625 | 38093 ft | 423 kts | 243° |
| 2026-05-07 16:49 | 49.01196 | -53.89940 | 38080 ft | 423 kts | 243° |
| 2026-05-07 16:49 | 48.98967 | -53.98251 | 38081 ft | 424 kts | 243° |
| 2026-05-07 16:50 | 48.96745 | -54.06504 | 38084 ft | 423 kts | 243° |
| 2026-05-07 16:50 | 48.94497 | -54.14829 | 38081 ft | 423 kts | 243° |
| 2026-05-07 16:51 | 48.92244 | -54.23134 | 38085 ft | 424 kts | 243° |
| 2026-05-07 16:51 | 48.89985 | -54.31438 | 38047 ft | 424 kts | 243° |
| 2026-05-07 16:52 | 48.87715 | -54.39751 | 38056 ft | 425 kts | 243° |
| 2026-05-07 16:52 | 48.85443 | -54.48048 | 38047 ft | 425 kts | 243° |
| 2026-05-07 16:53 | 48.83162 | -54.56344 | 38045 ft | 425 kts | 243° |
| 2026-05-07 16:53 | 48.80885 | -54.64580 | 38054 ft | 425 kts | 243° |
| 2026-05-07 16:54 | 48.78592 | -54.72858 | 38037 ft | 425 kts | 244° |
| 2026-05-07 16:54 | 48.76296 | -54.81134 | 38048 ft | 425 kts | 243° |
| 2026-05-07 16:55 | 48.73991 | -54.89405 | 38043 ft | 425 kts | 243° |
| 2026-05-07 16:55 | 48.71682 | -54.97661 | 38034 ft | 425 kts | 243° |
| 2026-05-07 16:56 | 48.69367 | -55.05902 | 38024 ft | 425 kts | 244° |
| 2026-05-07 16:56 | 48.65871 | -55.18293 | 38022 ft | 426 kts | 244° |
| 2026-05-07 16:57 | 48.63554 | -55.26482 | 38010 ft | 426 kts | 244° |